sensor_id;sensor_type;location;lat;lon;timestamp;P1;durP1;ratioP1;P2;durP2;ratioP2
18435;SDS011;9346;52.006;4.720;2022-08-19T00:00:49;4.37;;;3.30;;
18435;SDS011;9346;52.006;4.720;2022-08-19T00:03:19;4.27;;;3.33;;
18435;SDS011;9346;52.006;4.720;2022-08-19T00:05:45;6.80;;;4.30;;
18435;SDS011;9346;52.006;4.720;2022-08-19T00:08:14;6.43;;;4.50;;
18435;SDS011;9346;52.006;4.720;2022-08-19T00:10:41;5.70;;;4.30;;
18435;SDS011;9346;52.006;4.720;2022-08-19T00:13:08;5.57;;;4.30;;
18435;SDS011;9346;52.006;4.720;2022-08-19T00:15:35;6.83;;;5.17;;
18435;SDS011;9346;52.006;4.720;2022-08-19T00:18:02;7.17;;;5.13;;
18435;SDS011;9346;52.006;4.720;2022-08-19T00:20:29;10.27;;;4.67;;
18435;SDS011;9346;52.006;4.720;2022-08-19T00:22:56;7.33;;;4.83;;
18435;SDS011;9346;52.006;4.720;2022-08-19T00:25:24;5.80;;;4.73;;
18435;SDS011;9346;52.006;4.720;2022-08-19T00:27:51;5.63;;;4.27;;
18435;SDS011;9346;52.006;4.720;2022-08-19T00:30:18;6.17;;;4.07;;
18435;SDS011;9346;52.006;4.720;2022-08-19T00:32:45;4.47;;;3.80;;
18435;SDS011;9346;52.006;4.720;2022-08-19T00:35:12;4.13;;;3.70;;
18435;SDS011;9346;52.006;4.720;2022-08-19T00:37:39;6.33;;;4.47;;
18435;SDS011;9346;52.006;4.720;2022-08-19T00:40:09;5.30;;;4.50;;
18435;SDS011;9346;52.006;4.720;2022-08-19T00:42:40;5.63;;;4.50;;
18435;SDS011;9346;52.006;4.720;2022-08-19T00:45:09;7.77;;;5.17;;
18435;SDS011;9346;52.006;4.720;2022-08-19T00:47:38;7.83;;;5.83;;
18435;SDS011;9346;52.006;4.720;2022-08-19T00:50:05;7.37;;;5.17;;
18435;SDS011;9346;52.006;4.720;2022-08-19T00:52:36;7.73;;;4.93;;
18435;SDS011;9346;52.006;4.720;2022-08-19T00:55:10;7.40;;;5.43;;
18435;SDS011;9346;52.006;4.720;2022-08-19T00:57:42;7.83;;;6.43;;
18435;SDS011;9346;52.006;4.720;2022-08-19T01:00:17;11.83;;;6.77;;
18435;SDS011;9346;52.006;4.720;2022-08-19T01:02:45;9.17;;;5.63;;
18435;SDS011;9346;52.006;4.720;2022-08-19T01:05:13;8.70;;;6.13;;
18435;SDS011;9346;52.006;4.720;2022-08-19T01:07:45;10.10;;;6.77;;
18435;SDS011;9346;52.006;4.720;2022-08-19T01:10:15;9.57;;;6.93;;
18435;SDS011;9346;52.006;4.720;2022-08-19T01:12:46;11.27;;;7.73;;
18435;SDS011;9346;52.006;4.720;2022-08-19T01:15:16;16.73;;;9.23;;
18435;SDS011;9346;52.006;4.720;2022-08-19T01:17:46;11.17;;;8.03;;
18435;SDS011;9346;52.006;4.720;2022-08-19T01:20:16;12.40;;;7.53;;
18435;SDS011;9346;52.006;4.720;2022-08-19T01:22:47;10.60;;;7.53;;
18435;SDS011;9346;52.006;4.720;2022-08-19T01:25:17;13.13;;;7.90;;
18435;SDS011;9346;52.006;4.720;2022-08-19T01:27:48;13.00;;;7.17;;
18435;SDS011;9346;52.006;4.720;2022-08-19T01:30:16;10.17;;;7.50;;
18435;SDS011;9346;52.006;4.720;2022-08-19T01:32:47;9.70;;;7.40;;
18435;SDS011;9346;52.006;4.720;2022-08-19T01:35:14;9.47;;;7.63;;
18435;SDS011;9346;52.006;4.720;2022-08-19T01:37:44;10.53;;;7.00;;
18435;SDS011;9346;52.006;4.720;2022-08-19T01:40:14;9.93;;;6.57;;
18435;SDS011;9346;52.006;4.720;2022-08-19T01:42:45;10.67;;;6.97;;
18435;SDS011;9346;52.006;4.720;2022-08-19T01:45:12;9.20;;;7.13;;
18435;SDS011;9346;52.006;4.720;2022-08-19T01:47:39;10.93;;;6.43;;
18435;SDS011;9346;52.006;4.720;2022-08-19T01:50:07;9.33;;;6.50;;
18435;SDS011;9346;52.006;4.720;2022-08-19T01:52:35;9.70;;;6.10;;
18435;SDS011;9346;52.006;4.720;2022-08-19T01:55:05;9.00;;;6.77;;
18435;SDS011;9346;52.006;4.720;2022-08-19T01:57:34;8.97;;;6.37;;
18435;SDS011;9346;52.006;4.720;2022-08-19T02:00:02;10.43;;;5.97;;
18435;SDS011;9346;52.006;4.720;2022-08-19T02:02:31;8.20;;;6.10;;
18435;SDS011;9346;52.006;4.720;2022-08-19T02:04:58;8.27;;;5.63;;
18435;SDS011;9346;52.006;4.720;2022-08-19T02:07:25;10.60;;;6.50;;
18435;SDS011;9346;52.006;4.720;2022-08-19T02:09:53;8.40;;;5.70;;
18435;SDS011;9346;52.006;4.720;2022-08-19T02:12:22;6.53;;;4.77;;
18435;SDS011;9346;52.006;4.720;2022-08-19T02:14:48;8.50;;;5.20;;
18435;SDS011;9346;52.006;4.720;2022-08-19T02:17:16;6.30;;;4.33;;
18435;SDS011;9346;52.006;4.720;2022-08-19T02:19:43;5.87;;;4.20;;
18435;SDS011;9346;52.006;4.720;2022-08-19T02:22:10;5.67;;;4.37;;
18435;SDS011;9346;52.006;4.720;2022-08-19T02:24:37;9.23;;;4.80;;
18435;SDS011;9346;52.006;4.720;2022-08-19T02:27:05;5.83;;;4.53;;
18435;SDS011;9346;52.006;4.720;2022-08-19T02:29:33;7.10;;;5.13;;
18435;SDS011;9346;52.006;4.720;2022-08-19T02:32:00;7.17;;;5.20;;
18435;SDS011;9346;52.006;4.720;2022-08-19T02:34:27;8.47;;;5.13;;
18435;SDS011;9346;52.006;4.720;2022-08-19T02:36:54;6.20;;;5.30;;
18435;SDS011;9346;52.006;4.720;2022-08-19T02:39:21;7.23;;;5.53;;
18435;SDS011;9346;52.006;4.720;2022-08-19T02:41:46;9.97;;;5.70;;
18435;SDS011;9346;52.006;4.720;2022-08-19T02:44:16;7.13;;;5.83;;
18435;SDS011;9346;52.006;4.720;2022-08-19T02:46:48;8.47;;;6.30;;
18435;SDS011;9346;52.006;4.720;2022-08-19T02:49:15;10.47;;;7.50;;
18435;SDS011;9346;52.006;4.720;2022-08-19T02:51:43;13.83;;;9.20;;
18435;SDS011;9346;52.006;4.720;2022-08-19T02:54:12;13.77;;;9.63;;
18435;SDS011;9346;52.006;4.720;2022-08-19T02:56:41;16.37;;;8.93;;
18435;SDS011;9346;52.006;4.720;2022-08-19T02:59:10;13.17;;;8.10;;
18435;SDS011;9346;52.006;4.720;2022-08-19T03:01:38;9.10;;;6.17;;
18435;SDS011;9346;52.006;4.720;2022-08-19T03:04:09;7.00;;;4.50;;
18435;SDS011;9346;52.006;4.720;2022-08-19T03:06:39;6.80;;;4.80;;
18435;SDS011;9346;52.006;4.720;2022-08-19T03:09:07;7.47;;;4.80;;
18435;SDS011;9346;52.006;4.720;2022-08-19T03:11:35;8.37;;;5.20;;
18435;SDS011;9346;52.006;4.720;2022-08-19T03:14:03;6.73;;;5.23;;
18435;SDS011;9346;52.006;4.720;2022-08-19T03:16:32;9.00;;;5.57;;
18435;SDS011;9346;52.006;4.720;2022-08-19T03:19:01;10.40;;;6.27;;
18435;SDS011;9346;52.006;4.720;2022-08-19T03:21:31;7.37;;;5.13;;
18435;SDS011;9346;52.006;4.720;2022-08-19T03:24:01;8.37;;;5.63;;
18435;SDS011;9346;52.006;4.720;2022-08-19T03:26:30;12.40;;;8.10;;
18435;SDS011;9346;52.006;4.720;2022-08-19T03:28:57;10.77;;;6.87;;
18435;SDS011;9346;52.006;4.720;2022-08-19T03:31:25;11.27;;;8.20;;
18435;SDS011;9346;52.006;4.720;2022-08-19T03:33:53;11.30;;;7.03;;
18435;SDS011;9346;52.006;4.720;2022-08-19T03:36:20;10.87;;;7.70;;
18435;SDS011;9346;52.006;4.720;2022-08-19T03:38:51;15.00;;;8.77;;
18435;SDS011;9346;52.006;4.720;2022-08-19T03:41:21;20.47;;;9.07;;
18435;SDS011;9346;52.006;4.720;2022-08-19T03:43:49;13.00;;;8.47;;
18435;SDS011;9346;52.006;4.720;2022-08-19T03:46:19;12.50;;;8.67;;
18435;SDS011;9346;52.006;4.720;2022-08-19T03:48:48;19.07;;;9.83;;
18435;SDS011;9346;52.006;4.720;2022-08-19T03:51:20;16.13;;;9.97;;
18435;SDS011;9346;52.006;4.720;2022-08-19T03:53:51;16.77;;;10.03;;
18435;SDS011;9346;52.006;4.720;2022-08-19T03:56:19;14.83;;;9.33;;
18435;SDS011;9346;52.006;4.720;2022-08-19T03:58:46;20.30;;;11.40;;
18435;SDS011;9346;52.006;4.720;2022-08-19T04:01:14;16.37;;;10.43;;
18435;SDS011;9346;52.006;4.720;2022-08-19T04:03:44;22.00;;;11.77;;
18435;SDS011;9346;52.006;4.720;2022-08-19T04:06:12;22.83;;;10.77;;
18435;SDS011;9346;52.006;4.720;2022-08-19T04:08:42;20.93;;;13.07;;
18435;SDS011;9346;52.006;4.720;2022-08-19T04:11:12;28.10;;;14.27;;
18435;SDS011;9346;52.006;4.720;2022-08-19T04:13:40;22.33;;;13.67;;
18435;SDS011;9346;52.006;4.720;2022-08-19T04:16:08;22.03;;;13.57;;
18435;SDS011;9346;52.006;4.720;2022-08-19T04:18:37;24.83;;;14.83;;
18435;SDS011;9346;52.006;4.720;2022-08-19T04:21:05;25.23;;;14.53;;
18435;SDS011;9346;52.006;4.720;2022-08-19T04:23:33;29.77;;;14.93;;
18435;SDS011;9346;52.006;4.720;2022-08-19T04:26:02;25.17;;;13.13;;
18435;SDS011;9346;52.006;4.720;2022-08-19T04:28:30;30.07;;;14.93;;
18435;SDS011;9346;52.006;4.720;2022-08-19T04:30:57;28.83;;;15.87;;
18435;SDS011;9346;52.006;4.720;2022-08-19T04:33:26;35.50;;;17.70;;
18435;SDS011;9346;52.006;4.720;2022-08-19T04:35:53;33.23;;;18.03;;
18435;SDS011;9346;52.006;4.720;2022-08-19T04:38:23;33.87;;;17.33;;
18435;SDS011;9346;52.006;4.720;2022-08-19T04:40:50;32.13;;;17.47;;
18435;SDS011;9346;52.006;4.720;2022-08-19T04:43:37;37.20;;;18.23;;
18435;SDS011;9346;52.006;4.720;2022-08-19T04:46:05;33.57;;;18.47;;
18435;SDS011;9346;52.006;4.720;2022-08-19T04:48:33;34.17;;;18.27;;
18435;SDS011;9346;52.006;4.720;2022-08-19T04:51:00;34.60;;;19.47;;
18435;SDS011;9346;52.006;4.720;2022-08-19T04:53:31;38.13;;;18.43;;
18435;SDS011;9346;52.006;4.720;2022-08-19T04:56:03;37.37;;;19.43;;
18435;SDS011;9346;52.006;4.720;2022-08-19T04:58:32;40.53;;;20.87;;
18435;SDS011;9346;52.006;4.720;2022-08-19T05:01:01;43.23;;;21.37;;
18435;SDS011;9346;52.006;4.720;2022-08-19T05:03:28;39.93;;;19.57;;
18435;SDS011;9346;52.006;4.720;2022-08-19T05:05:59;41.50;;;18.63;;
18435;SDS011;9346;52.006;4.720;2022-08-19T05:08:33;41.93;;;18.33;;
18435;SDS011;9346;52.006;4.720;2022-08-19T05:11:06;44.63;;;19.20;;
18435;SDS011;9346;52.006;4.720;2022-08-19T05:13:36;42.67;;;20.07;;
18435;SDS011;9346;52.006;4.720;2022-08-19T05:16:05;41.67;;;19.10;;
18435;SDS011;9346;52.006;4.720;2022-08-19T05:18:32;47.70;;;21.43;;
18435;SDS011;9346;52.006;4.720;2022-08-19T05:21:17;47.13;;;20.50;;
18435;SDS011;9346;52.006;4.720;2022-08-19T05:24:03;38.57;;;20.23;;
18435;SDS011;9346;52.006;4.720;2022-08-19T05:26:32;38.73;;;19.13;;
18435;SDS011;9346;52.006;4.720;2022-08-19T05:28:59;37.50;;;19.60;;
18435;SDS011;9346;52.006;4.720;2022-08-19T05:31:28;38.37;;;17.90;;
18435;SDS011;9346;52.006;4.720;2022-08-19T05:33:56;39.93;;;20.03;;
18435;SDS011;9346;52.006;4.720;2022-08-19T05:36:24;46.47;;;22.00;;
18435;SDS011;9346;52.006;4.720;2022-08-19T05:38:50;43.90;;;20.97;;
18435;SDS011;9346;52.006;4.720;2022-08-19T05:41:18;43.80;;;20.23;;
18435;SDS011;9346;52.006;4.720;2022-08-19T05:43:48;45.50;;;20.17;;
18435;SDS011;9346;52.006;4.720;2022-08-19T05:46:16;43.20;;;21.80;;
18435;SDS011;9346;52.006;4.720;2022-08-19T05:48:48;52.43;;;22.57;;
18435;SDS011;9346;52.006;4.720;2022-08-19T05:51:15;47.67;;;21.87;;
18435;SDS011;9346;52.006;4.720;2022-08-19T05:53:42;51.60;;;22.00;;
18435;SDS011;9346;52.006;4.720;2022-08-19T05:56:11;43.97;;;22.43;;
18435;SDS011;9346;52.006;4.720;2022-08-19T05:58:41;47.37;;;22.00;;
18435;SDS011;9346;52.006;4.720;2022-08-19T06:01:10;46.37;;;20.80;;
18435;SDS011;9346;52.006;4.720;2022-08-19T06:03:39;46.20;;;19.90;;
18435;SDS011;9346;52.006;4.720;2022-08-19T06:06:08;43.87;;;20.50;;
18435;SDS011;9346;52.006;4.720;2022-08-19T06:08:36;45.27;;;22.47;;
18435;SDS011;9346;52.006;4.720;2022-08-19T06:11:18;41.00;;;20.83;;
18435;SDS011;9346;52.006;4.720;2022-08-19T06:13:48;41.03;;;21.63;;
18435;SDS011;9346;52.006;4.720;2022-08-19T06:16:17;45.53;;;21.53;;
18435;SDS011;9346;52.006;4.720;2022-08-19T06:18:47;44.13;;;22.13;;
18435;SDS011;9346;52.006;4.720;2022-08-19T06:21:18;52.80;;;23.17;;
18435;SDS011;9346;52.006;4.720;2022-08-19T06:23:45;38.23;;;20.23;;
18435;SDS011;9346;52.006;4.720;2022-08-19T06:26:13;44.10;;;18.57;;
18435;SDS011;9346;52.006;4.720;2022-08-19T06:28:40;43.13;;;20.80;;
18435;SDS011;9346;52.006;4.720;2022-08-19T06:31:10;49.60;;;19.87;;
18435;SDS011;9346;52.006;4.720;2022-08-19T06:33:39;42.30;;;20.40;;
18435;SDS011;9346;52.006;4.720;2022-08-19T06:36:06;43.17;;;20.77;;
18435;SDS011;9346;52.006;4.720;2022-08-19T06:38:35;39.57;;;20.13;;
18435;SDS011;9346;52.006;4.720;2022-08-19T06:41:02;43.93;;;20.87;;
18435;SDS011;9346;52.006;4.720;2022-08-19T06:43:29;42.23;;;21.17;;
18435;SDS011;9346;52.006;4.720;2022-08-19T06:45:57;42.37;;;20.07;;
18435;SDS011;9346;52.006;4.720;2022-08-19T06:48:24;41.50;;;21.30;;
18435;SDS011;9346;52.006;4.720;2022-08-19T06:50:51;38.73;;;21.47;;
18435;SDS011;9346;52.006;4.720;2022-08-19T06:53:17;42.13;;;20.40;;
18435;SDS011;9346;52.006;4.720;2022-08-19T06:55:47;37.93;;;19.70;;
18435;SDS011;9346;52.006;4.720;2022-08-19T06:58:25;38.20;;;20.33;;
18435;SDS011;9346;52.006;4.720;2022-08-19T07:00:52;37.23;;;19.33;;
18435;SDS011;9346;52.006;4.720;2022-08-19T07:03:19;46.03;;;20.03;;
18435;SDS011;9346;52.006;4.720;2022-08-19T07:05:46;41.87;;;19.53;;
18435;SDS011;9346;52.006;4.720;2022-08-19T07:08:13;38.23;;;18.63;;
18435;SDS011;9346;52.006;4.720;2022-08-19T07:10:42;29.97;;;16.10;;
18435;SDS011;9346;52.006;4.720;2022-08-19T07:13:11;25.40;;;15.90;;
18435;SDS011;9346;52.006;4.720;2022-08-19T07:15:38;29.03;;;17.23;;
18435;SDS011;9346;52.006;4.720;2022-08-19T07:18:05;27.70;;;17.13;;
18435;SDS011;9346;52.006;4.720;2022-08-19T07:20:32;27.73;;;15.67;;
18435;SDS011;9346;52.006;4.720;2022-08-19T07:22:58;23.53;;;15.03;;
18435;SDS011;9346;52.006;4.720;2022-08-19T07:25:25;29.13;;;15.50;;
18435;SDS011;9346;52.006;4.720;2022-08-19T07:27:53;26.63;;;15.37;;
18435;SDS011;9346;52.006;4.720;2022-08-19T07:30:21;27.63;;;15.30;;
18435;SDS011;9346;52.006;4.720;2022-08-19T07:32:49;22.50;;;14.10;;
18435;SDS011;9346;52.006;4.720;2022-08-19T07:35:17;23.20;;;13.80;;
18435;SDS011;9346;52.006;4.720;2022-08-19T07:37:45;28.00;;;14.87;;
18435;SDS011;9346;52.006;4.720;2022-08-19T07:40:12;24.00;;;14.47;;
18435;SDS011;9346;52.006;4.720;2022-08-19T07:42:39;25.57;;;14.07;;
18435;SDS011;9346;52.006;4.720;2022-08-19T07:45:09;24.60;;;13.73;;
18435;SDS011;9346;52.006;4.720;2022-08-19T07:47:38;27.53;;;14.20;;
18435;SDS011;9346;52.006;4.720;2022-08-19T07:50:06;26.00;;;15.73;;
18435;SDS011;9346;52.006;4.720;2022-08-19T07:52:37;23.73;;;14.20;;
18435;SDS011;9346;52.006;4.720;2022-08-19T07:55:05;27.80;;;15.97;;
18435;SDS011;9346;52.006;4.720;2022-08-19T07:57:33;24.47;;;15.10;;
18435;SDS011;9346;52.006;4.720;2022-08-19T08:00:00;22.77;;;15.07;;
18435;SDS011;9346;52.006;4.720;2022-08-19T08:02:28;23.37;;;13.80;;
18435;SDS011;9346;52.006;4.720;2022-08-19T08:04:56;18.23;;;14.13;;
18435;SDS011;9346;52.006;4.720;2022-08-19T08:07:40;20.73;;;13.67;;
18435;SDS011;9346;52.006;4.720;2022-08-19T08:10:24;24.70;;;15.10;;
18435;SDS011;9346;52.006;4.720;2022-08-19T08:12:52;20.43;;;13.47;;
18435;SDS011;9346;52.006;4.720;2022-08-19T08:15:20;22.63;;;13.60;;
18435;SDS011;9346;52.006;4.720;2022-08-19T08:17:47;23.33;;;13.07;;
18435;SDS011;9346;52.006;4.720;2022-08-19T08:20:16;18.87;;;12.43;;
18435;SDS011;9346;52.006;4.720;2022-08-19T08:22:43;18.97;;;12.53;;
18435;SDS011;9346;52.006;4.720;2022-08-19T08:25:36;19.63;;;13.37;;
18435;SDS011;9346;52.006;4.720;2022-08-19T08:28:03;22.60;;;13.43;;
18435;SDS011;9346;52.006;4.720;2022-08-19T08:30:32;20.13;;;13.60;;
18435;SDS011;9346;52.006;4.720;2022-08-19T08:33:00;20.97;;;13.93;;
18435;SDS011;9346;52.006;4.720;2022-08-19T08:35:29;22.23;;;14.10;;
18435;SDS011;9346;52.006;4.720;2022-08-19T08:37:56;23.03;;;14.50;;
18435;SDS011;9346;52.006;4.720;2022-08-19T08:40:26;24.87;;;14.70;;
18435;SDS011;9346;52.006;4.720;2022-08-19T08:42:56;22.37;;;15.20;;
18435;SDS011;9346;52.006;4.720;2022-08-19T08:45:30;23.53;;;13.73;;
18435;SDS011;9346;52.006;4.720;2022-08-19T08:47:57;20.43;;;13.63;;
18435;SDS011;9346;52.006;4.720;2022-08-19T08:50:31;19.93;;;13.07;;
18435;SDS011;9346;52.006;4.720;2022-08-19T08:53:03;21.63;;;13.27;;
18435;SDS011;9346;52.006;4.720;2022-08-19T08:55:31;20.63;;;13.67;;
18435;SDS011;9346;52.006;4.720;2022-08-19T08:58:04;19.40;;;13.37;;
18435;SDS011;9346;52.006;4.720;2022-08-19T09:00:36;21.20;;;13.23;;
18435;SDS011;9346;52.006;4.720;2022-08-19T09:03:06;18.80;;;12.97;;
18435;SDS011;9346;52.006;4.720;2022-08-19T09:05:45;24.33;;;13.97;;
18435;SDS011;9346;52.006;4.720;2022-08-19T09:08:22;22.37;;;13.23;;
18435;SDS011;9346;52.006;4.720;2022-08-19T09:10:57;19.07;;;12.37;;
18435;SDS011;9346;52.006;4.720;2022-08-19T09:13:26;18.70;;;12.07;;
18435;SDS011;9346;52.006;4.720;2022-08-19T09:16:02;17.97;;;11.77;;
18435;SDS011;9346;52.006;4.720;2022-08-19T09:18:39;16.07;;;12.00;;
18435;SDS011;9346;52.006;4.720;2022-08-19T09:21:09;15.77;;;11.47;;
18435;SDS011;9346;52.006;4.720;2022-08-19T09:23:36;18.97;;;12.33;;
18435;SDS011;9346;52.006;4.720;2022-08-19T09:26:06;22.43;;;12.90;;
18435;SDS011;9346;52.006;4.720;2022-08-19T09:28:34;15.57;;;11.07;;
18435;SDS011;9346;52.006;4.720;2022-08-19T09:31:02;16.03;;;11.43;;
18435;SDS011;9346;52.006;4.720;2022-08-19T09:33:29;18.40;;;12.20;;
18435;SDS011;9346;52.006;4.720;2022-08-19T09:36:06;16.53;;;13.23;;
18435;SDS011;9346;52.006;4.720;2022-08-19T09:38:37;16.97;;;11.03;;
18435;SDS011;9346;52.006;4.720;2022-08-19T09:41:07;16.23;;;10.50;;
18435;SDS011;9346;52.006;4.720;2022-08-19T09:43:37;12.83;;;9.73;;
18435;SDS011;9346;52.006;4.720;2022-08-19T09:46:05;16.03;;;10.70;;
18435;SDS011;9346;52.006;4.720;2022-08-19T09:48:34;14.70;;;10.07;;
18435;SDS011;9346;52.006;4.720;2022-08-19T09:51:02;17.87;;;11.03;;
18435;SDS011;9346;52.006;4.720;2022-08-19T09:53:30;14.77;;;10.53;;
18435;SDS011;9346;52.006;4.720;2022-08-19T09:55:58;15.87;;;10.30;;
18435;SDS011;9346;52.006;4.720;2022-08-19T09:58:25;12.37;;;9.40;;
18435;SDS011;9346;52.006;4.720;2022-08-19T10:00:54;14.37;;;8.90;;
18435;SDS011;9346;52.006;4.720;2022-08-19T10:03:22;12.43;;;9.67;;
18435;SDS011;9346;52.006;4.720;2022-08-19T10:05:49;13.23;;;8.60;;
18435;SDS011;9346;52.006;4.720;2022-08-19T10:08:17;12.20;;;7.73;;
18435;SDS011;9346;52.006;4.720;2022-08-19T10:10:47;10.37;;;7.80;;
18435;SDS011;9346;52.006;4.720;2022-08-19T10:13:17;11.33;;;7.93;;
18435;SDS011;9346;52.006;4.720;2022-08-19T10:15:47;12.43;;;8.60;;
18435;SDS011;9346;52.006;4.720;2022-08-19T10:18:15;13.70;;;8.67;;
18435;SDS011;9346;52.006;4.720;2022-08-19T10:20:44;12.97;;;8.37;;
18435;SDS011;9346;52.006;4.720;2022-08-19T10:23:11;9.10;;;7.50;;
18435;SDS011;9346;52.006;4.720;2022-08-19T10:25:38;12.17;;;7.47;;
18435;SDS011;9346;52.006;4.720;2022-08-19T10:28:06;9.47;;;7.03;;
18435;SDS011;9346;52.006;4.720;2022-08-19T10:30:35;12.43;;;7.40;;
18435;SDS011;9346;52.006;4.720;2022-08-19T10:33:02;9.30;;;7.80;;
18435;SDS011;9346;52.006;4.720;2022-08-19T10:35:29;10.30;;;6.53;;
18435;SDS011;9346;52.006;4.720;2022-08-19T10:37:56;9.13;;;7.67;;
18435;SDS011;9346;52.006;4.720;2022-08-19T10:40:25;10.97;;;7.17;;
18435;SDS011;9346;52.006;4.720;2022-08-19T10:42:52;8.43;;;7.07;;
18435;SDS011;9346;52.006;4.720;2022-08-19T10:45:20;7.10;;;6.07;;
18435;SDS011;9346;52.006;4.720;2022-08-19T10:47:52;7.80;;;6.27;;
18435;SDS011;9346;52.006;4.720;2022-08-19T10:50:19;7.13;;;5.43;;
18435;SDS011;9346;52.006;4.720;2022-08-19T10:53:04;8.80;;;5.97;;
18435;SDS011;9346;52.006;4.720;2022-08-19T10:55:33;7.70;;;5.50;;
18435;SDS011;9346;52.006;4.720;2022-08-19T10:58:19;7.13;;;4.83;;
18435;SDS011;9346;52.006;4.720;2022-08-19T11:00:51;5.00;;;4.10;;
18435;SDS011;9346;52.006;4.720;2022-08-19T11:03:21;6.87;;;4.57;;
18435;SDS011;9346;52.006;4.720;2022-08-19T11:05:56;6.57;;;4.50;;
18435;SDS011;9346;52.006;4.720;2022-08-19T11:08:24;5.17;;;4.07;;
18435;SDS011;9346;52.006;4.720;2022-08-19T11:10:51;7.20;;;4.67;;
18435;SDS011;9346;52.006;4.720;2022-08-19T11:13:20;5.43;;;4.30;;
18435;SDS011;9346;52.006;4.720;2022-08-19T11:15:55;7.90;;;4.63;;
18435;SDS011;9346;52.006;4.720;2022-08-19T11:18:25;5.67;;;4.20;;
18435;SDS011;9346;52.006;4.720;2022-08-19T11:20:52;4.50;;;3.57;;
18435;SDS011;9346;52.006;4.720;2022-08-19T11:23:19;4.83;;;3.70;;
18435;SDS011;9346;52.006;4.720;2022-08-19T11:25:46;5.43;;;3.33;;
18435;SDS011;9346;52.006;4.720;2022-08-19T11:28:14;4.57;;;3.37;;
18435;SDS011;9346;52.006;4.720;2022-08-19T11:30:41;4.90;;;3.20;;
18435;SDS011;9346;52.006;4.720;2022-08-19T11:33:08;4.37;;;2.87;;
18435;SDS011;9346;52.006;4.720;2022-08-19T11:35:39;3.53;;;2.83;;
18435;SDS011;9346;52.006;4.720;2022-08-19T11:38:07;3.57;;;2.60;;
18435;SDS011;9346;52.006;4.720;2022-08-19T11:40:33;3.23;;;2.43;;
18435;SDS011;9346;52.006;4.720;2022-08-19T11:43:00;4.23;;;2.30;;
18435;SDS011;9346;52.006;4.720;2022-08-19T11:45:27;3.77;;;2.27;;
18435;SDS011;9346;52.006;4.720;2022-08-19T11:47:55;2.37;;;2.17;;
18435;SDS011;9346;52.006;4.720;2022-08-19T11:50:22;3.00;;;2.20;;
18435;SDS011;9346;52.006;4.720;2022-08-19T11:52:54;3.80;;;2.93;;
18435;SDS011;9346;52.006;4.720;2022-08-19T11:55:21;8.27;;;2.80;;
18435;SDS011;9346;52.006;4.720;2022-08-19T11:57:49;3.00;;;2.53;;
18435;SDS011;9346;52.006;4.720;2022-08-19T12:00:16;3.37;;;2.17;;
18435;SDS011;9346;52.006;4.720;2022-08-19T12:02:43;2.57;;;2.30;;
18435;SDS011;9346;52.006;4.720;2022-08-19T12:05:10;4.23;;;2.17;;
18435;SDS011;9346;52.006;4.720;2022-08-19T12:07:37;3.67;;;1.97;;
18435;SDS011;9346;52.006;4.720;2022-08-19T12:10:07;2.60;;;1.90;;
18435;SDS011;9346;52.006;4.720;2022-08-19T12:12:35;3.77;;;2.00;;
18435;SDS011;9346;52.006;4.720;2022-08-19T12:15:05;3.27;;;1.70;;
18435;SDS011;9346;52.006;4.720;2022-08-19T12:17:33;1.70;;;1.60;;
18435;SDS011;9346;52.006;4.720;2022-08-19T12:20:00;2.77;;;2.23;;
18435;SDS011;9346;52.006;4.720;2022-08-19T12:22:27;2.27;;;1.70;;
18435;SDS011;9346;52.006;4.720;2022-08-19T12:24:55;1.70;;;1.53;;
18435;SDS011;9346;52.006;4.720;2022-08-19T12:27:24;1.43;;;1.33;;
18435;SDS011;9346;52.006;4.720;2022-08-19T12:29:51;2.30;;;1.80;;
18435;SDS011;9346;52.006;4.720;2022-08-19T12:32:18;1.80;;;1.50;;
18435;SDS011;9346;52.006;4.720;2022-08-19T12:34:46;1.60;;;1.50;;
18435;SDS011;9346;52.006;4.720;2022-08-19T12:37:13;3.80;;;1.57;;
18435;SDS011;9346;52.006;4.720;2022-08-19T12:39:41;1.60;;;1.33;;
18435;SDS011;9346;52.006;4.720;2022-08-19T12:42:09;1.37;;;1.20;;
18435;SDS011;9346;52.006;4.720;2022-08-19T12:44:40;1.30;;;1.20;;
18435;SDS011;9346;52.006;4.720;2022-08-19T12:47:10;2.57;;;1.30;;
18435;SDS011;9346;52.006;4.720;2022-08-19T12:49:40;2.60;;;1.30;;
18435;SDS011;9346;52.006;4.720;2022-08-19T12:52:09;2.27;;;1.00;;
18435;SDS011;9346;52.006;4.720;2022-08-19T12:54:40;1.80;;;1.27;;
18435;SDS011;9346;52.006;4.720;2022-08-19T12:57:08;1.30;;;1.17;;
18435;SDS011;9346;52.006;4.720;2022-08-19T12:59:36;2.40;;;1.40;;
18435;SDS011;9346;52.006;4.720;2022-08-19T13:02:06;2.13;;;1.93;;
18435;SDS011;9346;52.006;4.720;2022-08-19T13:04:34;3.03;;;2.40;;
18435;SDS011;9346;52.006;4.720;2022-08-19T13:07:05;4.00;;;3.27;;
18435;SDS011;9346;52.006;4.720;2022-08-19T13:09:33;5.73;;;3.17;;
18435;SDS011;9346;52.006;4.720;2022-08-19T13:12:00;3.60;;;3.13;;
18435;SDS011;9346;52.006;4.720;2022-08-19T13:14:32;3.47;;;2.87;;
18435;SDS011;9346;52.006;4.720;2022-08-19T13:17:00;2.80;;;2.57;;
18435;SDS011;9346;52.006;4.720;2022-08-19T13:19:29;5.07;;;3.10;;
18435;SDS011;9346;52.006;4.720;2022-08-19T13:21:57;3.67;;;2.93;;
18435;SDS011;9346;52.006;4.720;2022-08-19T13:24:24;3.67;;;3.17;;
18435;SDS011;9346;52.006;4.720;2022-08-19T13:26:51;4.10;;;3.40;;
18435;SDS011;9346;52.006;4.720;2022-08-19T13:29:18;4.07;;;2.73;;
18435;SDS011;9346;52.006;4.720;2022-08-19T13:32:03;3.07;;;2.57;;
18435;SDS011;9346;52.006;4.720;2022-08-19T13:34:50;3.47;;;2.53;;
18435;SDS011;9346;52.006;4.720;2022-08-19T13:37:16;4.33;;;2.83;;
18435;SDS011;9346;52.006;4.720;2022-08-19T13:40:05;3.90;;;2.50;;
18435;SDS011;9346;52.006;4.720;2022-08-19T13:42:39;4.27;;;2.80;;
18435;SDS011;9346;52.006;4.720;2022-08-19T13:45:06;3.23;;;2.70;;
18435;SDS011;9346;52.006;4.720;2022-08-19T13:47:34;4.87;;;3.10;;
18435;SDS011;9346;52.006;4.720;2022-08-19T13:50:11;5.50;;;3.23;;
18435;SDS011;9346;52.006;4.720;2022-08-19T13:52:40;5.23;;;3.70;;
18435;SDS011;9346;52.006;4.720;2022-08-19T13:55:08;7.67;;;4.03;;
18435;SDS011;9346;52.006;4.720;2022-08-19T13:57:36;5.80;;;3.70;;
18435;SDS011;9346;52.006;4.720;2022-08-19T14:00:05;5.63;;;3.97;;
18435;SDS011;9346;52.006;4.720;2022-08-19T14:02:34;7.93;;;4.13;;
18435;SDS011;9346;52.006;4.720;2022-08-19T14:05:02;6.43;;;3.97;;
18435;SDS011;9346;52.006;4.720;2022-08-19T14:07:31;7.47;;;4.23;;
18435;SDS011;9346;52.006;4.720;2022-08-19T14:09:58;5.87;;;4.07;;
18435;SDS011;9346;52.006;4.720;2022-08-19T14:12:25;7.17;;;4.70;;
18435;SDS011;9346;52.006;4.720;2022-08-19T14:14:52;7.07;;;4.20;;
18435;SDS011;9346;52.006;4.720;2022-08-19T14:17:19;6.30;;;4.07;;
18435;SDS011;9346;52.006;4.720;2022-08-19T14:19:46;5.87;;;4.17;;
18435;SDS011;9346;52.006;4.720;2022-08-19T14:22:13;6.40;;;4.50;;
18435;SDS011;9346;52.006;4.720;2022-08-19T14:24:41;6.17;;;4.23;;
18435;SDS011;9346;52.006;4.720;2022-08-19T14:27:08;6.60;;;4.43;;
18435;SDS011;9346;52.006;4.720;2022-08-19T14:29:36;5.27;;;4.00;;
18435;SDS011;9346;52.006;4.720;2022-08-19T14:32:03;6.40;;;3.90;;
18435;SDS011;9346;52.006;4.720;2022-08-19T14:34:30;6.40;;;3.67;;
18435;SDS011;9346;52.006;4.720;2022-08-19T14:36:58;5.40;;;3.73;;
18435;SDS011;9346;52.006;4.720;2022-08-19T14:39:25;6.40;;;3.90;;
18435;SDS011;9346;52.006;4.720;2022-08-19T14:41:54;5.47;;;3.60;;
18435;SDS011;9346;52.006;4.720;2022-08-19T14:44:21;4.33;;;3.17;;
18435;SDS011;9346;52.006;4.720;2022-08-19T14:46:48;5.83;;;3.37;;
18435;SDS011;9346;52.006;4.720;2022-08-19T14:49:15;5.73;;;3.07;;
18435;SDS011;9346;52.006;4.720;2022-08-19T14:51:42;6.53;;;3.57;;
18435;SDS011;9346;52.006;4.720;2022-08-19T14:54:11;4.13;;;2.77;;
18435;SDS011;9346;52.006;4.720;2022-08-19T14:56:39;4.70;;;2.73;;
18435;SDS011;9346;52.006;4.720;2022-08-19T14:59:08;3.93;;;3.13;;